Clayton Arthur — WDJ5261 — position and weather

sailwx.info

Track history (hours):
 
Tides and Currents Weather Stations Pressure Air Temp Water Temp Dewpoint Dewpoint Depression Visibility Wind Speed Wind Dir Waves Ship Positions

Clayton Arthur

Owner: DeForge Maritime Towing, Seattle, WA. More information available from US FCC via Universal Licensing System and Coast Guard Vessel Documentation Center.

Last reported at 2017-Oct-17 22:00 UTC. Time now 2017-Oct-17 22:31 UTC.
Position N 49°31' W 123°29'.

; draft 5 m.

Type: Tow > 200 m length. MMSI: 367785930.

Date/timePositionNaut miles runAvg speedWind from/ knotsBaromVisibWave heightAir tempDewpointWater temp
2017-Oct-17 22:00N 49°31' W 123°29'0 0.1
2017-Oct-17 21:30N 49°31' W 123°29'0 0.0
2017-Oct-17 21:00N 49°31' W 123°29'0 0.2
2017-Oct-17 20:30N 49°32' W 123°29'0 0.0
2017-Oct-17 20:00N 49°32' W 123°29'0 0.0
2017-Oct-17 19:30N 49°32' W 123°29'0 0.0
2017-Oct-17 19:00N 49°32' W 123°29'0 0.0
2017-Oct-17 18:30N 49°32' W 123°29'0 0.0
2017-Oct-17 18:00N 49°32' W 123°29'0 0.0
2017-Oct-17 17:30N 49°32' W 123°29'0 0.0
2017-Oct-17 17:00N 49°32' W 123°29'0 0.0
2017-Oct-17 16:30N 49°32' W 123°29'0 0.0
2017-Oct-17 16:00N 49°32' W 123°29'0 0.0
2017-Oct-17 15:30N 49°32' W 123°29'0 0.0
2017-Oct-17 15:00N 49°32' W 123°29'0 0.0
2017-Oct-17 14:30N 49°32' W 123°29'0 0.0
2017-Oct-17 14:00N 49°32' W 123°29'0 0.0
2017-Oct-17 13:30N 49°32' W 123°29'0 0.0
2017-Oct-17 13:00N 49°32' W 123°29'0 0.0
2017-Oct-17 12:30N 49°32' W 123°29'0 0.0
2017-Oct-17 12:00N 49°32' W 123°29'0 0.0
2017-Oct-17 11:30N 49°32' W 123°29'0 0.0
2017-Oct-17 11:00N 49°32' W 123°29'0 0.0
2017-Oct-17 10:30N 49°32' W 123°29'0 0.0
2017-Oct-17 10:00N 49°32' W 123°29'0 0.0
2017-Oct-17 09:30N 49°32' W 123°29'0 0.0
2017-Oct-17 09:00N 49°32' W 123°29'0 0.0
2017-Oct-17 08:30N 49°32' W 123°29'0 0.0
2017-Oct-17 08:00N 49°32' W 123°29'0 0.0
2017-Oct-17 07:30N 49°32' W 123°29'0 0.0
2017-Oct-17 07:00N 49°32' W 123°29'0 0.0
2017-Oct-17 06:30N 49°32' W 123°29'0 0.0
2017-Oct-17 06:00N 49°32' W 123°29'0 0.0
2017-Oct-17 05:30N 49°32' W 123°29'0 0.0
2017-Oct-17 05:00N 49°32' W 123°29'0 0.0
2017-Oct-17 04:30N 49°32' W 123°29'0 0.0
2017-Oct-17 04:00N 49°32' W 123°29'0 0.0
2017-Oct-17 03:30N 49°32' W 123°29'0 0.0
2017-Oct-17 03:00N 49°32' W 123°29'0 0.0
2017-Oct-17 02:30N 49°32' W 123°29'0 0.0
2017-Oct-17 02:00N 49°32' W 123°29'0 0.0
2017-Oct-17 01:30N 49°32' W 123°29'0 0.0
2017-Oct-17 01:00N 49°32' W 123°29'0 0.0
2017-Oct-17 00:30N 49°32' W 123°29'0 0.0
2017-Oct-17 00:00N 49°32' W 123°29'0 0.0
2017-Oct-16 23:30N 49°32' W 123°29'0 0.0
2017-Oct-16 23:00N 49°32' W 123°29'0 0.0
2017-Oct-16 22:30N 49°32' W 123°29'0 0.0
2017-Oct-16 22:00N 49°32' W 123°29'0 0.0
2017-Oct-16 21:30N 49°32' W 123°29'0 0.0
2017-Oct-16 21:00N 49°32' W 123°29'0 0.0
2017-Oct-16 20:30N 49°32' W 123°29'0 0.0
2017-Oct-16 20:00N 49°32' W 123°29'0 0.0
2017-Oct-16 19:30N 49°32' W 123°29'0 0.0
2017-Oct-16 19:00N 49°32' W 123°29'0 0.0
2017-Oct-16 18:30N 49°32' W 123°29'0 0.0
2017-Oct-16 18:00N 49°32' W 123°29'0 0.0
2017-Oct-16 17:30N 49°32' W 123°29'0 0.0
2017-Oct-16 17:00N 49°32' W 123°29'0 0.0
2017-Oct-16 16:30N 49°32' W 123°29'0 0.8
2017-Oct-16 16:00N 49°32' W 123°28'1 1.9
2017-Oct-16 15:30N 49°32' W 123°27'3 5.4
2017-Oct-16 15:00N 49°32' W 123°23'7 6.9
2017-Oct-16 14:00N 49°26' W 123°17'4 7.0
2017-Oct-16 13:30N 49°23' W 123°18'3 6.7
2017-Oct-16 13:01N 49°20' W 123°20'4 7.8
2017-Oct-16 12:30N 49°16' W 123°19'4 7.6
2017-Oct-16 12:00N 49°12' W 123°19'4 7.3
2017-Oct-16 11:30N 49°08' W 123°20'4 7.1
2017-Oct-16 11:00N 49°05' W 123°21'3 6.7
2017-Oct-16 10:30N 49°02' W 123°18'4 7.6
2017-Oct-16 10:00N 48°60' W 123°13'4 7.6
2017-Oct-16 09:30N 48°57' W 123°09'4 7.6
2017-Oct-16 08:59N 48°54' W 123°05'4 8.1
2017-Oct-16 08:30N 48°52' W 123°00'4 7.6
2017-Oct-16 08:00N 48°48' W 122°60'4 8.9
2017-Oct-16 07:30N 48°45' W 123°05'4 7.8
2017-Oct-16 07:00N 48°43' W 123°10'4 7.1
2017-Oct-16 06:30N 48°42' W 123°15'4 7.8
2017-Oct-16 06:00N 48°38' W 123°14'4 7.0
2017-Oct-16 05:30N 48°34' W 123°13'3 6.7
2017-Oct-16 05:00N 48°31' W 123°11'3 6.0
2017-Oct-16 04:30N 48°28' W 123°10'3 6.6
2017-Oct-16 04:00N 48°25' W 123°10'3 6.4
2017-Oct-16 03:30N 48°22' W 123°11'4 6.8
2017-Oct-16 02:58N 48°18' W 123°11'3 6.7
2017-Oct-16 02:27N 48°15' W 123°13'3 6.6
2017-Oct-16 01:58N 48°12' W 123°16'3 6.3
2017-Oct-16 01:30N 48°11' W 123°20'2 4.3
2017-Oct-16 01:00N 48°09' W 123°22'3 5.7
2017-Oct-16 00:30N 48°08' W 123°25'0 0.6
2017-Oct-16 00:00N 48°07' W 123°26'0 0.9
2017-Oct-15 23:30N 48°08' W 123°25'2 3.5
2017-Oct-15 23:00N 48°08' W 123°23'3 6.7
2017-Oct-15 22:30N 48°10' W 123°18'2 3.7
2017-Oct-15 21:58N 48°12' W 123°17'3 7.2
2017-Oct-15 21:30N 48°12' W 123°22'4 6.8
2017-Oct-15 20:58N 48°12' W 123°27'4 7.8
2017-Oct-15 20:30N 48°12' W 123°33'4 8.2
2017-Oct-15 20:00N 48°12' W 123°39'4 7.9
2017-Oct-15 19:29N 48°12' W 123°45'4 8.1
2017-Oct-15 18:59N 48°12' W 123°51'4 8.1
2017-Oct-15 18:26N 48°13' W 123°58'3 7.9
2017-Oct-15 18:00N 48°15' W 124°02'4 7.7
2017-Oct-15 17:30N 48°16' W 124°07'4 7.4
2017-Oct-15 17:00N 48°18' W 124°12'4 7.2
2017-Oct-15 16:30N 48°20' W 124°17'3 6.8
2017-Oct-15 16:00N 48°21' W 124°22'3 6.9
2017-Oct-15 15:30N 48°22' W 124°27'3 6.0
2017-Oct-15 15:00N 48°23' W 124°31'6 6.4
2017-Oct-15 14:00N 48°26' W 124°40'3 6.1
2017-Oct-15 13:30N 48°26' W 124°44'3 6.4
2017-Oct-15 13:00N 48°25' W 124°49'4 7.0
2017-Oct-15 12:28N 48°22' W 124°52'83 7.1
2017-Oct-15 00:49N 46°60' W 124°32'2 7.6
2017-Oct-15 00:30N 46°58' W 124°32'4 7.5
2017-Oct-15 00:00N 46°54' W 124°31'4 7.4
2017-Oct-14 23:30N 46°50' W 124°29'5 7.5
2017-Oct-14 22:53N 46°46' W 124°28'3 7.4
2017-Oct-14 22:31N 46°43' W 124°27'4 7.4
2017-Oct-14 22:01N 46°40' W 124°26'4 7.4
2017-Oct-14 21:30N 46°36' W 124°25'4 7.5
2017-Oct-14 21:00N 46°32' W 124°24'4 7.7
2017-Oct-14 20:30N 46°28' W 124°23'4 7.5
2017-Oct-14 20:01N 46°25' W 124°21'4 7.7
2017-Oct-14 19:31N 46°21' W 124°20'4 7.7
2017-Oct-14 19:00N 46°17' W 124°19'4 7.1
2017-Oct-14 18:30N 46°14' W 124°18'3 6.8
2017-Oct-14 18:00N 46°11' W 124°15'3 6.7
2017-Oct-14 17:31N 46°09' W 124°12'3 6.7
2017-Oct-14 17:00N 46°05' W 124°10'3 6.5
2017-Oct-14 16:30N 46°02' W 124°10'3 6.3
2017-Oct-14 16:01N 45°59' W 124°09'510.4
2017-Oct-14 15:30N 45°54' W 124°08'1 2.0
2017-Oct-14 15:01N 45°53' W 124°08'3 6.3
2017-Oct-14 14:30N 45°50' W 124°07'3 6.3
2017-Oct-14 14:01N 45°47' W 124°06'3 6.4
2017-Oct-14 13:31N 45°44' W 124°06'3 6.4
2017-Oct-14 13:01N 45°40' W 124°05'3 6.5
2017-Oct-14 12:30N 45°37' W 124°05'3 6.5
2017-Oct-14 12:01N 45°34' W 124°04'3 6.6
2017-Oct-14 11:30N 45°31' W 124°05'3 6.8
2017-Oct-14 11:00N 45°27' W 124°05'3 6.8
2017-Oct-14 10:30N 45°24' W 124°05'3 6.9
2017-Oct-14 10:00N 45°20' W 124°06'3 6.7
2017-Oct-14 09:30N 45°17' W 124°06'3 6.7
2017-Oct-14 09:00N 45°14' W 124°07'  
2017-Oct-11 00:00N 46°34' W 124°24'3 6.0
2017-Oct-10 23:30N 46°37' W 124°25'3 6.0
2017-Oct-10 23:00N 46°40' W 124°26'3 6.0
2017-Oct-10 22:30N 46°43' W 124°27'3 6.1
2017-Oct-10 22:00N 46°46' W 124°28'3 6.2
2017-Oct-10 21:30N 46°49' W 124°29'3 6.3
2017-Oct-10 21:00N 46°52' W 124°30'3 6.3
2017-Oct-10 20:30N 46°55' W 124°31'3 6.4
2017-Oct-10 20:01N 46°59' W 124°32'69 7.7
2017-Oct-10 11:02N 48°06' W 124°54'1 5.7
2017-Oct-10 10:46N 48°07' W 124°54'4 5.7
2017-Oct-10 10:09N 48°11' W 124°56'1 5.8
2017-Oct-10 10:00N 48°12' W 124°56'3 5.8
2017-Oct-10 09:26N 48°15' W 124°56'3 6.1
2017-Oct-10 09:00N 48°17' W 124°55'4 8.5
2017-Oct-10 08:30N 48°21' W 124°52'5 8.9
2017-Oct-10 07:59N 48°25' W 124°49'4 7.6
2017-Oct-10 07:31N 48°26' W 124°43'5 9.3
2017-Oct-10 07:01N 48°25' W 124°37'5 9.9
2017-Oct-10 06:31N 48°23' W 124°30'510.0
2017-Oct-10 05:58N 48°20' W 124°23'510.0
2017-Oct-10 05:30N 48°18' W 124°16'5 9.8
2017-Oct-10 04:59N 48°16' W 124°09'5 9.7
2017-Oct-10 04:30N 48°14' W 124°03'5 9.4
2017-Oct-10 04:00N 48°12' W 123°57'4 8.9
2017-Oct-10 03:30N 48°12' W 123°50'4 8.4
2017-Oct-10 02:59N 48°11' W 123°44'4 7.7
2017-Oct-10 02:31N 48°11' W 123°38'4 7.4
2017-Oct-10 02:01N 48°11' W 123°33'4 7.7
2017-Oct-10 01:31N 48°11' W 123°27'3 5.7
2017-Oct-10 01:00N 48°09' W 123°23'2 3.4
2017-Oct-10 00:31N 48°08' W 123°25'1 2.3
2017-Oct-10 00:00N 48°08' W 123°26'0 0.0
2017-Oct-09 23:31N 48°08' W 123°26'0 0.0
2017-Oct-09 23:01N 48°08' W 123°26'0 0.0
2017-Oct-09 22:30N 48°08' W 123°26'0 0.0
2017-Oct-09 22:00N 48°08' W 123°26'0 0.0
2017-Oct-09 21:30N 48°08' W 123°26'0 0.0
2017-Oct-09 21:01N 48°08' W 123°26'0 0.2
2017-Oct-09 20:30N 48°08' W 123°26'1 1.7
2017-Oct-09 20:01N 48°08' W 123°25'1 1.5
2017-Oct-09 19:31N 48°08' W 123°24'2 4.1
2017-Oct-09 19:01N 48°09' W 123°21'0 0.3
2017-Oct-09 18:31N 48°09' W 123°21'2 3.3
2017-Oct-09 18:00N 48°09' W 123°23'2 3.7
2017-Oct-09 17:29N 48°10' W 123°26'2 4.1
2017-Oct-09 17:01N 48°11' W 123°29'3 5.1
2017-Oct-09 16:31N 48°11' W 123°32'3 6.5
2017-Oct-09 16:00N 48°11' W 123°37'3 6.5
2017-Oct-09 15:30N 48°11' W 123°42'3 5.6
2017-Oct-09 15:01N 48°11' W 123°46'3 5.9
2017-Oct-09 14:29N 48°12' W 123°51'3 5.8
2017-Oct-09 13:54N 48°12' W 123°56'2 5.8
2017-Oct-09 13:30N 48°12' W 123°59'3 5.9
2017-Oct-09 13:00N 48°13' W 124°04'3 5.9
2017-Oct-09 12:29N 48°15' W 124°08'3 5.7
2017-Oct-09 12:00N 48°16' W 124°11'3 5.7
2017-Oct-09 11:30N 48°17' W 124°15'3 5.4
2017-Oct-09 11:00N 48°18' W 124°19'3 5.1
2017-Oct-09 10:30N 48°19' W 124°23'2 4.8
2017-Oct-09 10:01N 48°20' W 124°26'2 4.5
2017-Oct-09 09:30N 48°21' W 124°29'2 4.1
2017-Oct-09 09:00N 48°23' W 124°31'2 3.4
2017-Oct-09 08:31N 48°23' W 124°33'2 3.2
2017-Oct-09 08:01N 48°24' W 124°36'2 3.1
2017-Oct-09 07:30N 48°25' W 124°38'1 2.4
2017-Oct-09 07:00N 48°26' W 124°39'1 2.4
2017-Oct-09 06:31N 48°26' W 124°41'1 2.7
2017-Oct-09 06:00N 48°26' W 124°43'0 0.9
2017-Oct-09 05:30N 48°26' W 124°43'1 2.7
2017-Oct-09 05:00N 48°26' W 124°45'2 4.6
2017-Oct-09 04:30N 48°26' W 124°48'611.9
2017-Oct-09 04:00N 48°25' W 124°39'510.8
2017-Oct-09 03:30N 48°23' W 124°32'611.0
2017-Oct-09 03:00N 48°21' W 124°24'510.5
2017-Oct-09 02:30N 48°18' W 124°17'510.0
2017-Oct-09 02:00N 48°16' W 124°10'5 9.6
2017-Oct-09 01:28N 48°14' W 124°03'4 8.8
2017-Oct-09 00:59N 48°12' W 123°57'4 8.4
2017-Oct-09 00:30N 48°12' W 123°51'4 8.3
2017-Oct-09 00:00N 48°12' W 123°45'4 9.0
2017-Oct-08 23:30N 48°12' W 123°38'5 9.2
2017-Oct-08 23:01N 48°11' W 123°32'4 8.8
2017-Oct-08 22:30N 48°10' W 123°25'2 4.9
2017-Oct-08 22:00N 48°09' W 123°22'4 8.1
2017-Oct-08 21:30N 48°12' W 123°17'510.1
2017-Oct-08 20:59N 48°16' W 123°13'510.2
2017-Oct-08 20:30N 48°21' W 123°12'612.2
2017-Oct-08 20:00N 48°27' W 123°12'612.0
2017-Oct-08 19:30N 48°33' W 123°13'612.0
2017-Oct-08 19:00N 48°39' W 123°15'5 9.7
2017-Oct-08 18:30N 48°43' W 123°12'612.0
2017-Oct-08 18:00N 48°46' W 123°04'4 8.3
2017-Oct-08 17:31N 48°50' W 123°02'611.2
2017-Oct-08 17:01N 48°53' W 123°08'510.4
2017-Oct-08 16:30N 48°57' W 123°14'510.3
2017-Oct-08 16:00N 49°00' W 123°20'510.3
2017-Oct-08 15:30N 49°05' W 123°24'510.3
2017-Oct-08 15:00N 49°10' W 123°23'5 9.8
2017-Oct-08 14:31N 49°15' W 123°22'5 9.2
2017-Oct-08 14:00N 49°19' W 123°21'5 9.1
2017-Oct-08 13:30N 49°23' W 123°18'510.1
2017-Oct-08 13:00N 49°28' W 123°18'5 9.6
2017-Oct-08 12:30N 49°32' W 123°22'2 4.6
2017-Oct-08 12:00N 49°32' W 123°26'2 3.6
2017-Oct-08 11:31N 49°31' W 123°28'0 0.5
2017-Oct-08 11:00N 49°32' W 123°29'0 0.0
2017-Oct-08 10:30N 49°32' W 123°29'0 0.0
2017-Oct-08 10:01N 49°32' W 123°29'0 0.0
2017-Oct-08 09:30N 49°32' W 123°29'0 0.0
2017-Oct-08 09:00N 49°32' W 123°29'0 0.0
2017-Oct-08 08:31N 49°32' W 123°29'0 0.0
2017-Oct-08 08:00N 49°32' W 123°29'0 0.0
2017-Oct-08 07:30N 49°32' W 123°29'0 0.0
2017-Oct-08 07:01N 49°32' W 123°29'0 0.0
2017-Oct-08 06:30N 49°32' W 123°29'0 0.0
2017-Oct-08 06:01N 49°32' W 123°29'0 0.0
2017-Oct-08 05:30N 49°32' W 123°29'0 0.0
2017-Oct-08 05:00N 49°32' W 123°29'0 0.0
2017-Oct-08 04:31N 49°32' W 123°29'0 0.0
2017-Oct-08 04:00N 49°32' W 123°29'0 0.0
2017-Oct-08 03:30N 49°32' W 123°29'0 0.0
2017-Oct-08 03:01N 49°32' W 123°29'0 0.0
2017-Oct-08 02:30N 49°32' W 123°29'0 0.0
2017-Oct-08 02:00N 49°32' W 123°29'0 0.0
2017-Oct-08 01:30N 49°32' W 123°29'0 0.0
2017-Oct-08 01:00N 49°32' W 123°29'0 0.0
2017-Oct-08 00:30N 49°32' W 123°29'0 0.0
2017-Oct-08 00:00N 49°32' W 123°29'0 0.0
2017-Oct-07 23:29N 49°32' W 123°29'0 0.0
2017-Oct-07 23:00N 49°32' W 123°29'0 0.0
2017-Oct-07 22:31N 49°32' W 123°29'0 0.0
2017-Oct-07 22:00N 49°32' W 123°29'  
Track history (hours):
 
Tides and Currents Weather Stations Pressure Air Temp Water Temp Dewpoint Dewpoint Depression Visibility Wind Speed Wind Dir Waves Ship Positions

Clayton Arthur

Owner: DeForge Maritime Towing, Seattle, WA. More information available from US FCC via Universal Licensing System and Coast Guard Vessel Documentation Center.

Last reported at 2017-Oct-17 22:00 UTC. Time now 2017-Oct-17 22:31 UTC.
Position N 49°31' W 123°29'.

; draft 5 m.

Type: Tow > 200 m length. MMSI: 367785930.

Date/timePositionNaut miles runAvg speedWind from/ knotsBaromVisibWave heightAir tempDewpointWater temp
2017-Oct-17 22:00N 49°31' W 123°29'0 0.1
2017-Oct-17 21:30N 49°31' W 123°29'0 0.0
2017-Oct-17 21:00N 49°31' W 123°29'0 0.2
2017-Oct-17 20:30N 49°32' W 123°29'0 0.0
2017-Oct-17 20:00N 49°32' W 123°29'0 0.0
2017-Oct-17 19:30N 49°32' W 123°29'0 0.0
2017-Oct-17 19:00N 49°32' W 123°29'0 0.0
2017-Oct-17 18:30N 49°32' W 123°29'0 0.0
2017-Oct-17 18:00N 49°32' W 123°29'0 0.0
2017-Oct-17 17:30N 49°32' W 123°29'0 0.0
2017-Oct-17 17:00N 49°32' W 123°29'0 0.0
2017-Oct-17 16:30N 49°32' W 123°29'0 0.0
2017-Oct-17 16:00N 49°32' W 123°29'0 0.0
2017-Oct-17 15:30N 49°32' W 123°29'0 0.0
2017-Oct-17 15:00N 49°32' W 123°29'0 0.0
2017-Oct-17 14:30N 49°32' W 123°29'0 0.0
2017-Oct-17 14:00N 49°32' W 123°29'0 0.0
2017-Oct-17 13:30N 49°32' W 123°29'0 0.0
2017-Oct-17 13:00N 49°32' W 123°29'0 0.0
2017-Oct-17 12:30N 49°32' W 123°29'0 0.0
2017-Oct-17 12:00N 49°32' W 123°29'0 0.0
2017-Oct-17 11:30N 49°32' W 123°29'0 0.0
2017-Oct-17 11:00N 49°32' W 123°29'0 0.0
2017-Oct-17 10:30N 49°32' W 123°29'0 0.0
2017-Oct-17 10:00N 49°32' W 123°29'0 0.0
2017-Oct-17 09:30N 49°32' W 123°29'0 0.0
2017-Oct-17 09:00N 49°32' W 123°29'0 0.0
2017-Oct-17 08:30N 49°32' W 123°29'0 0.0
2017-Oct-17 08:00N 49°32' W 123°29'0 0.0
2017-Oct-17 07:30N 49°32' W 123°29'0 0.0
2017-Oct-17 07:00N 49°32' W 123°29'0 0.0
2017-Oct-17 06:30N 49°32' W 123°29'0 0.0
2017-Oct-17 06:00N 49°32' W 123°29'0 0.0
2017-Oct-17 05:30N 49°32' W 123°29'0 0.0
2017-Oct-17 05:00N 49°32' W 123°29'0 0.0
2017-Oct-17 04:30N 49°32' W 123°29'0 0.0
2017-Oct-17 04:00N 49°32' W 123°29'0 0.0
2017-Oct-17 03:30N 49°32' W 123°29'0 0.0
2017-Oct-17 03:00N 49°32' W 123°29'0 0.0
2017-Oct-17 02:30N 49°32' W 123°29'0 0.0
2017-Oct-17 02:00N 49°32' W 123°29'0 0.0
2017-Oct-17 01:30N 49°32' W 123°29'0 0.0
2017-Oct-17 01:00N 49°32' W 123°29'0 0.0
2017-Oct-17 00:30N 49°32' W 123°29'0 0.0
2017-Oct-17 00:00N 49°32' W 123°29'0 0.0
2017-Oct-16 23:30N 49°32' W 123°29'0 0.0
2017-Oct-16 23:00N 49°32' W 123°29'0 0.0
2017-Oct-16 22:30N 49°32' W 123°29'0 0.0
2017-Oct-16 22:00N 49°32' W 123°29'0 0.0
2017-Oct-16 21:30N 49°32' W 123°29'0 0.0
2017-Oct-16 21:00N 49°32' W 123°29'0 0.0
2017-Oct-16 20:30N 49°32' W 123°29'0 0.0
2017-Oct-16 20:00N 49°32' W 123°29'0 0.0
2017-Oct-16 19:30N 49°32' W 123°29'0 0.0
2017-Oct-16 19:00N 49°32' W 123°29'0 0.0
2017-Oct-16 18:30N 49°32' W 123°29'0 0.0
2017-Oct-16 18:00N 49°32' W 123°29'0 0.0
2017-Oct-16 17:30N 49°32' W 123°29'0 0.0
2017-Oct-16 17:00N 49°32' W 123°29'0 0.0
2017-Oct-16 16:30N 49°32' W 123°29'0 0.8
2017-Oct-16 16:00N 49°32' W 123°28'1 1.9
2017-Oct-16 15:30N 49°32' W 123°27'3 5.4
2017-Oct-16 15:00N 49°32' W 123°23'7 6.9
2017-Oct-16 14:00N 49°26' W 123°17'4 7.0
2017-Oct-16 13:30N 49°23' W 123°18'3 6.7
2017-Oct-16 13:01N 49°20' W 123°20'4 7.8
2017-Oct-16 12:30N 49°16' W 123°19'4 7.6
2017-Oct-16 12:00N 49°12' W 123°19'4 7.3
2017-Oct-16 11:30N 49°08' W 123°20'4 7.1
2017-Oct-16 11:00N 49°05' W 123°21'3 6.7
2017-Oct-16 10:30N 49°02' W 123°18'4 7.6
2017-Oct-16 10:00N 48°60' W 123°13'4 7.6
2017-Oct-16 09:30N 48°57' W 123°09'4 7.6
2017-Oct-16 08:59N 48°54' W 123°05'4 8.1
2017-Oct-16 08:30N 48°52' W 123°00'4 7.6
2017-Oct-16 08:00N 48°48' W 122°60'4 8.9
2017-Oct-16 07:30N 48°45' W 123°05'4 7.8
2017-Oct-16 07:00N 48°43' W 123°10'4 7.1
2017-Oct-16 06:30N 48°42' W 123°15'4 7.8
2017-Oct-16 06:00N 48°38' W 123°14'4 7.0
2017-Oct-16 05:30N 48°34' W 123°13'3 6.7
2017-Oct-16 05:00N 48°31' W 123°11'3 6.0
2017-Oct-16 04:30N 48°28' W 123°10'3 6.6
2017-Oct-16 04:00N 48°25' W 123°10'3 6.4
2017-Oct-16 03:30N 48°22' W 123°11'4 6.8
2017-Oct-16 02:58N 48°18' W 123°11'3 6.7
2017-Oct-16 02:27N 48°15' W 123°13'3 6.6
2017-Oct-16 01:58N 48°12' W 123°16'3 6.3
2017-Oct-16 01:30N 48°11' W 123°20'2 4.3
2017-Oct-16 01:00N 48°09' W 123°22'3 5.7
2017-Oct-16 00:30N 48°08' W 123°25'0 0.6
2017-Oct-16 00:00N 48°07' W 123°26'0 0.9
2017-Oct-15 23:30N 48°08' W 123°25'2 3.5
2017-Oct-15 23:00N 48°08' W 123°23'3 6.7
2017-Oct-15 22:30N 48°10' W 123°18'2 3.7
2017-Oct-15 21:58N 48°12' W 123°17'3 7.2
2017-Oct-15 21:30N 48°12' W 123°22'4 6.8
2017-Oct-15 20:58N 48°12' W 123°27'4 7.8
2017-Oct-15 20:30N 48°12' W 123°33'4 8.2
2017-Oct-15 20:00N 48°12' W 123°39'4 7.9
2017-Oct-15 19:29N 48°12' W 123°45'4 8.1
2017-Oct-15 18:59N 48°12' W 123°51'4 8.1
2017-Oct-15 18:26N 48°13' W 123°58'3 7.9
2017-Oct-15 18:00N 48°15' W 124°02'4 7.7
2017-Oct-15 17:30N 48°16' W 124°07'4 7.4
2017-Oct-15 17:00N 48°18' W 124°12'4 7.2
2017-Oct-15 16:30N 48°20' W 124°17'3 6.8
2017-Oct-15 16:00N 48°21' W 124°22'3 6.9
2017-Oct-15 15:30N 48°22' W 124°27'3 6.0
2017-Oct-15 15:00N 48°23' W 124°31'6 6.4
2017-Oct-15 14:00N 48°26' W 124°40'3 6.1
2017-Oct-15 13:30N 48°26' W 124°44'3 6.4
2017-Oct-15 13:00N 48°25' W 124°49'4 7.0
2017-Oct-15 12:28N 48°22' W 124°52'83 7.1
2017-Oct-15 00:49N 46°60' W 124°32'2 7.6
2017-Oct-15 00:30N 46°58' W 124°32'4 7.5
2017-Oct-15 00:00N 46°54' W 124°31'4 7.4
2017-Oct-14 23:30N 46°50' W 124°29'5 7.5
2017-Oct-14 22:53N 46°46' W 124°28'3 7.4
2017-Oct-14 22:31N 46°43' W 124°27'4 7.4
2017-Oct-14 22:01N 46°40' W 124°26'4 7.4
2017-Oct-14 21:30N 46°36' W 124°25'4 7.5
2017-Oct-14 21:00N 46°32' W 124°24'4 7.7
2017-Oct-14 20:30N 46°28' W 124°23'4 7.5
2017-Oct-14 20:01N 46°25' W 124°21'4 7.7
2017-Oct-14 19:31N 46°21' W 124°20'4 7.7
2017-Oct-14 19:00N 46°17' W 124°19'4 7.1
2017-Oct-14 18:30N 46°14' W 124°18'3 6.8
2017-Oct-14 18:00N 46°11' W 124°15'3 6.7
2017-Oct-14 17:31N 46°09' W 124°12'3 6.7
2017-Oct-14 17:00N 46°05' W 124°10'3 6.5
2017-Oct-14 16:30N 46°02' W 124°10'3 6.3
2017-Oct-14 16:01N 45°59' W 124°09'510.4
2017-Oct-14 15:30N 45°54' W 124°08'1 2.0
2017-Oct-14 15:01N 45°53' W 124°08'3 6.3
2017-Oct-14 14:30N 45°50' W 124°07'3 6.3
2017-Oct-14 14:01N 45°47' W 124°06'3 6.4
2017-Oct-14 13:31N 45°44' W 124°06'3 6.4
2017-Oct-14 13:01N 45°40' W 124°05'3 6.5
2017-Oct-14 12:30N 45°37' W 124°05'3 6.5
2017-Oct-14 12:01N 45°34' W 124°04'3 6.6
2017-Oct-14 11:30N 45°31' W 124°05'3 6.8
2017-Oct-14 11:00N 45°27' W 124°05'3 6.8
2017-Oct-14 10:30N 45°24' W 124°05'3 6.9
2017-Oct-14 10:00N 45°20' W 124°06'3 6.7
2017-Oct-14 09:30N 45°17' W 124°06'3 6.7
2017-Oct-14 09:00N 45°14' W 124°07'  
2017-Oct-11 00:00N 46°34' W 124°24'3 6.0
2017-Oct-10 23:30N 46°37' W 124°25'3 6.0
2017-Oct-10 23:00N 46°40' W 124°26'3 6.0
2017-Oct-10 22:30N 46°43' W 124°27'3 6.1
2017-Oct-10 22:00N 46°46' W 124°28'3 6.2
2017-Oct-10 21:30N 46°49' W 124°29'3 6.3
2017-Oct-10 21:00N 46°52' W 124°30'3 6.3
2017-Oct-10 20:30N 46°55' W 124°31'3 6.4
2017-Oct-10 20:01N 46°59' W 124°32'69 7.7
2017-Oct-10 11:02N 48°06' W 124°54'1 5.7
2017-Oct-10 10:46N 48°07' W 124°54'4 5.7
2017-Oct-10 10:09N 48°11' W 124°56'1 5.8
2017-Oct-10 10:00N 48°12' W 124°56'3 5.8
2017-Oct-10 09:26N 48°15' W 124°56'3 6.1
2017-Oct-10 09:00N 48°17' W 124°55'4 8.5
2017-Oct-10 08:30N 48°21' W 124°52'5 8.9
2017-Oct-10 07:59N 48°25' W 124°49'4 7.6
2017-Oct-10 07:31N 48°26' W 124°43'5 9.3
2017-Oct-10 07:01N 48°25' W 124°37'5 9.9
2017-Oct-10 06:31N 48°23' W 124°30'510.0
2017-Oct-10 05:58N 48°20' W 124°23'510.0
2017-Oct-10 05:30N 48°18' W 124°16'5 9.8
2017-Oct-10 04:59N 48°16' W 124°09'5 9.7
2017-Oct-10 04:30N 48°14' W 124°03'5 9.4
2017-Oct-10 04:00N 48°12' W 123°57'4 8.9
2017-Oct-10 03:30N 48°12' W 123°50'4 8.4
2017-Oct-10 02:59N 48°11' W 123°44'4 7.7
2017-Oct-10 02:31N 48°11' W 123°38'4 7.4
2017-Oct-10 02:01N 48°11' W 123°33'4 7.7
2017-Oct-10 01:31N 48°11' W 123°27'3 5.7
2017-Oct-10 01:00N 48°09' W 123°23'2 3.4
2017-Oct-10 00:31N 48°08' W 123°25'1 2.3
2017-Oct-10 00:00N 48°08' W 123°26'0 0.0
2017-Oct-09 23:31N 48°08' W 123°26'0 0.0
2017-Oct-09 23:01N 48°08' W 123°26'0 0.0
2017-Oct-09 22:30N 48°08' W 123°26'0 0.0
2017-Oct-09 22:00N 48°08' W 123°26'0 0.0
2017-Oct-09 21:30N 48°08' W 123°26'0 0.0
2017-Oct-09 21:01N 48°08' W 123°26'0 0.2
2017-Oct-09 20:30N 48°08' W 123°26'1 1.7
2017-Oct-09 20:01N 48°08' W 123°25'1 1.5
2017-Oct-09 19:31N 48°08' W 123°24'2 4.1
2017-Oct-09 19:01N 48°09' W 123°21'0 0.3
2017-Oct-09 18:31N 48°09' W 123°21'2 3.3
2017-Oct-09 18:00N 48°09' W 123°23'2 3.7
2017-Oct-09 17:29N 48°10' W 123°26'2 4.1
2017-Oct-09 17:01N 48°11' W 123°29'3 5.1
2017-Oct-09 16:31N 48°11' W 123°32'3 6.5
2017-Oct-09 16:00N 48°11' W 123°37'3 6.5
2017-Oct-09 15:30N 48°11' W 123°42'3 5.6
2017-Oct-09 15:01N 48°11' W 123°46'3 5.9
2017-Oct-09 14:29N 48°12' W 123°51'3 5.8
2017-Oct-09 13:54N 48°12' W 123°56'2 5.8
2017-Oct-09 13:30N 48°12' W 123°59'3 5.9
2017-Oct-09 13:00N 48°13' W 124°04'3 5.9
2017-Oct-09 12:29N 48°15' W 124°08'3 5.7
2017-Oct-09 12:00N 48°16' W 124°11'3 5.7
2017-Oct-09 11:30N 48°17' W 124°15'3 5.4
2017-Oct-09 11:00N 48°18' W 124°19'3 5.1
2017-Oct-09 10:30N 48°19' W 124°23'2 4.8
2017-Oct-09 10:01N 48°20' W 124°26'2 4.5
2017-Oct-09 09:30N 48°21' W 124°29'2 4.1
2017-Oct-09 09:00N 48°23' W 124°31'2 3.4
2017-Oct-09 08:31N 48°23' W 124°33'2 3.2
2017-Oct-09 08:01N 48°24' W 124°36'2 3.1
2017-Oct-09 07:30N 48°25' W 124°38'1 2.4
2017-Oct-09 07:00N 48°26' W 124°39'1 2.4
2017-Oct-09 06:31N 48°26' W 124°41'1 2.7
2017-Oct-09 06:00N 48°26' W 124°43'0 0.9
2017-Oct-09 05:30N 48°26' W 124°43'1 2.7
2017-Oct-09 05:00N 48°26' W 124°45'2 4.6
2017-Oct-09 04:30N 48°26' W 124°48'611.9
2017-Oct-09 04:00N 48°25' W 124°39'510.8
2017-Oct-09 03:30N 48°23' W 124°32'611.0
2017-Oct-09 03:00N 48°21' W 124°24'510.5
2017-Oct-09 02:30N 48°18' W 124°17'510.0
2017-Oct-09 02:00N 48°16' W 124°10'5 9.6
2017-Oct-09 01:28N 48°14' W 124°03'4 8.8
2017-Oct-09 00:59N 48°12' W 123°57'4 8.4
2017-Oct-09 00:30N 48°12' W 123°51'4 8.3
2017-Oct-09 00:00N 48°12' W 123°45'4 9.0
2017-Oct-08 23:30N 48°12' W 123°38'5 9.2
2017-Oct-08 23:01N 48°11' W 123°32'4 8.8
2017-Oct-08 22:30N 48°10' W 123°25'2 4.9
2017-Oct-08 22:00N 48°09' W 123°22'4 8.1
2017-Oct-08 21:30N 48°12' W 123°17'510.1
2017-Oct-08 20:59N 48°16' W 123°13'510.2
2017-Oct-08 20:30N 48°21' W 123°12'612.2
2017-Oct-08 20:00N 48°27' W 123°12'612.0
2017-Oct-08 19:30N 48°33' W 123°13'612.0
2017-Oct-08 19:00N 48°39' W 123°15'5 9.7
2017-Oct-08 18:30N 48°43' W 123°12'612.0
2017-Oct-08 18:00N 48°46' W 123°04'4 8.3
2017-Oct-08 17:31N 48°50' W 123°02'611.2
2017-Oct-08 17:01N 48°53' W 123°08'510.4
2017-Oct-08 16:30N 48°57' W 123°14'510.3
2017-Oct-08 16:00N 49°00' W 123°20'510.3
2017-Oct-08 15:30N 49°05' W 123°24'510.3
2017-Oct-08 15:00N 49°10' W 123°23'5 9.8
2017-Oct-08 14:31N 49°15' W 123°22'5 9.2
2017-Oct-08 14:00N 49°19' W 123°21'5 9.1
2017-Oct-08 13:30N 49°23' W 123°18'510.1
2017-Oct-08 13:00N 49°28' W 123°18'5 9.6
2017-Oct-08 12:30N 49°32' W 123°22'2 4.6
2017-Oct-08 12:00N 49°32' W 123°26'2 3.6
2017-Oct-08 11:31N 49°31' W 123°28'0 0.5
2017-Oct-08 11:00N 49°32' W 123°29'0 0.0
2017-Oct-08 10:30N 49°32' W 123°29'0 0.0
2017-Oct-08 10:01N 49°32' W 123°29'0 0.0
2017-Oct-08 09:30N 49°32' W 123°29'0 0.0
2017-Oct-08 09:00N 49°32' W 123°29'0 0.0
2017-Oct-08 08:31N 49°32' W 123°29'0 0.0
2017-Oct-08 08:00N 49°32' W 123°29'0 0.0
2017-Oct-08 07:30N 49°32' W 123°29'0 0.0
2017-Oct-08 07:01N 49°32' W 123°29'0 0.0
2017-Oct-08 06:30N 49°32' W 123°29'0 0.0
2017-Oct-08 06:01N 49°32' W 123°29'0 0.0
2017-Oct-08 05:30N 49°32' W 123°29'0 0.0
2017-Oct-08 05:00N 49°32' W 123°29'0 0.0
2017-Oct-08 04:31N 49°32' W 123°29'0 0.0
2017-Oct-08 04:00N 49°32' W 123°29'0 0.0
2017-Oct-08 03:30N 49°32' W 123°29'0 0.0
2017-Oct-08 03:01N 49°32' W 123°29'0 0.0
2017-Oct-08 02:30N 49°32' W 123°29'0 0.0
2017-Oct-08 02:00N 49°32' W 123°29'0 0.0
2017-Oct-08 01:30N 49°32' W 123°29'0 0.0
2017-Oct-08 01:00N 49°32' W 123°29'0 0.0
2017-Oct-08 00:30N 49°32' W 123°29'0 0.0
2017-Oct-08 00:00N 49°32' W 123°29'0 0.0
2017-Oct-07 23:29N 49°32' W 123°29'0 0.0
2017-Oct-07 23:00N 49°32' W 123°29'0 0.0
2017-Oct-07 22:31N 49°32' W 123°29'0 0.0
2017-Oct-07 22:00N 49°32' W 123°29'  

Dump ship's entire track history